Time;durP1;ratioP1;P1;durP2;ratioP2;P2;SDS_P1;SDS_P2;PMS_P1;PMS_P2;Temp;Humidity;BMP_temperature;BMP_pressure;BME280_temperature;BME280_humidity;BME280_pressure;Samples;Min_cycle;Max_cycle;Signal;HPM_P1;HPM_P2
2022/10/08 00:01:21;;;;;;;2.45;1.30;;;23.60;99.90;;;;;;5064532;28;20195;-79
2022/10/08 00:03:54;;;;;;;1.30;1.20;;;23.50;99.90;;;;;;5063456;28;20191;-79
2022/10/08 00:06:27;;;;;;;2.38;1.10;;;23.60;99.90;;;;;;5064129;28;20200;-79
2022/10/08 00:09:00;;;;;;;1.52;1.10;;;23.60;99.90;;;;;;5062654;28;20198;-79
2022/10/08 00:11:33;;;;;;;1.30;1.10;;;23.60;99.90;;;;;;5063431;28;20739;-79
2022/10/08 00:14:06;;;;;;;2.47;1.20;;;23.70;99.90;;;;;;5063605;28;20241;-79
2022/10/08 00:16:38;;;;;;;1.23;1.02;;;23.70;99.90;;;;;;5064475;28;20669;-79
2022/10/08 00:19:12;;;;;;;1.50;1.15;;;23.70;99.90;;;;;;5063844;28;20230;-79
2022/10/08 00:21:45;;;;;;;2.13;1.10;;;23.60;99.90;;;;;;5061332;28;20816;-79
2022/10/08 00:24:17;;;;;;;0.95;0.95;;;23.40;99.90;;;;;;5067017;28;20214;-79
2022/10/08 00:26:48;;;;;;;2.58;1.27;;;23.30;99.90;;;;;;5065891;28;20226;-80
2022/10/08 00:29:22;;;;;;;1.80;1.70;;;23.40;99.90;;;;;;5064885;28;20243;-80
2022/10/08 00:31:53;;;;;;;1.60;1.30;;;23.40;99.90;;;;;;5063359;28;20207;-80
2022/10/08 00:34:25;;;;;;;1.40;1.30;;;23.40;99.90;;;;;;5063135;28;20203;-79
2022/10/08 00:36:58;;;;;;;1.30;1.20;;;23.40;99.90;;;;;;5071647;28;20198;-79
2022/10/08 00:39:28;;;;;;;2.40;1.50;;;23.40;99.90;;;;;;5095619;28;20301;-79
2022/10/08 00:41:59;;;;;;;1.20;1.10;;;23.40;99.90;;;;;;5089306;28;20210;-79
2022/10/08 00:44:54;;;;;;;1.38;1.20;;;23.50;99.90;;;;;;5089173;28;20684;-79
2022/10/08 00:47:37;;;;;;;1.48;1.20;;;23.60;99.90;;;;;;5089094;28;20203;-79
2022/10/08 00:50:14;;;;;;;1.42;1.10;;;23.60;99.90;;;;;;5087629;28;20219;-78
2022/10/08 00:52:47;;;;;;;1.10;1.00;;;23.70;99.90;;;;;;5084059;28;20653;-79
2022/10/08 00:55:20;;;;;;;1.40;1.10;;;23.70;99.90;;;;;;5089232;28;20201;-78
2022/10/08 00:57:52;;;;;;;1.33;1.02;;;23.70;99.90;;;;;;5086260;28;20214;-80
2022/10/08 01:00:27;;;;;;;1.40;1.30;;;23.70;99.90;;;;;;5088181;28;20199;-77
2022/10/08 01:02:58;;;;;;;2.30;1.13;;;23.70;99.90;;;;;;5088053;28;20205;-77
2022/10/08 01:05:39;;;;;;;1.20;1.10;;;23.70;99.90;;;;;;5088261;28;20286;-78
2022/10/08 01:08:17;;;;;;;1.75;1.15;;;23.80;99.90;;;;;;5087259;28;20210;-76
2022/10/08 01:10:55;;;;;;;3.00;1.30;;;23.80;99.90;;;;;;5089230;28;20199;-77
2022/10/08 01:13:38;;;;;;;1.33;1.08;;;23.90;99.90;;;;;;5088263;28;20227;-76
2022/10/08 01:16:22;;;;;;;1.38;1.13;;;24.10;99.90;;;;;;5088788;28;20214;-76
2022/10/08 01:18:59;;;;;;;0.90;0.90;;;24.20;99.90;;;;;;5087257;28;20223;-76
2022/10/08 01:21:40;;;;;;;1.38;1.00;;;24.30;99.90;;;;;;5090325;28;20211;-76
2022/10/08 01:25:31;;;;;;;1.30;1.00;;;24.30;99.90;;;;;;5086568;28;20241;-77
2022/10/08 01:27:30;;;;;;;1.20;1.10;;;24.20;99.90;;;;;;5087085;28;20191;-76
2022/10/08 01:30:05;;;;;;;1.00;0.90;;;24.10;99.90;;;;;;5087495;28;20649;-76
2022/10/08 01:32:42;;;;;;;1.15;0.90;;;24.10;99.90;;;;;;5087321;28;20199;-76
2022/10/08 01:35:20;;;;;;;1.30;0.80;;;24.00;99.90;;;;;;5088126;28;20199;-76
2022/10/08 01:37:54;;;;;;;1.25;0.80;;;24.00;99.90;;;;;;5088637;28;20207;-76
2022/10/08 01:40:30;;;;;;;1.80;0.80;;;23.90;99.90;;;;;;5087960;28;20214;-76
2022/10/08 01:43:05;;;;;;;0.60;0.57;;;23.90;99.90;;;;;;5087733;28;20297;-76
2022/10/08 01:45:40;;;;;;;0.60;0.60;;;23.70;99.90;;;;;;5087638;28;20309;-77
2022/10/08 01:48:17;;;;;;;0.80;0.65;;;23.60;99.90;;;;;;5087987;28;20205;-77
2022/10/08 01:50:54;;;;;;;1.05;0.80;;;23.70;99.90;;;;;;5087262;28;20304;-77
2022/10/08 01:53:29;;;;;;;2.42;0.70;;;23.60;99.90;;;;;;5087508;28;20206;-77
2022/10/08 01:56:03;;;;;;;1.77;0.90;;;23.50;99.90;;;;;;5086585;28;20191;-76
2022/10/08 01:58:41;;;;;;;1.35;0.90;;;23.50;99.90;;;;;;5084953;28;20692;-76
2022/10/08 02:01:16;;;;;;;0.80;0.63;;;23.40;99.90;;;;;;5087804;28;20210;-76
2022/10/08 02:06:36;;;;;;;0.98;0.85;;;23.30;99.90;;;;;;5087630;28;20195;-77
2022/10/08 02:09:07;;;;;;;1.65;1.00;;;23.20;99.90;;;;;;5087483;28;20673;-77
2022/10/08 02:11:38;;;;;;;3.45;1.17;;;23.20;99.90;;;;;;5088002;28;20567;-77
2022/10/08 02:14:11;;;;;;;2.47;1.80;;;23.00;99.90;;;;;;5088608;28;20231;-77
2022/10/08 02:16:48;;;;;;;1.75;1.33;;;23.00;99.90;;;;;;5088479;28;20203;-76
2022/10/08 02:19:25;;;;;;;2.88;1.27;;;22.90;99.90;;;;;;5088596;28;20223;-77
2022/10/08 02:21:57;;;;;;;2.33;1.33;;;22.80;99.90;;;;;;5085152;28;20647;-76
2022/10/08 02:24:35;;;;;;;1.20;1.10;;;22.70;99.90;;;;;;5086519;28;20199;-77
2022/10/08 02:27:09;;;;;;;1.60;1.30;;;22.60;99.90;;;;;;5086144;28;20210;-77
2022/10/08 02:29:46;;;;;;;1.45;1.10;;;22.50;99.90;;;;;;5087134;28;20206;-77
2022/10/08 02:32:23;;;;;;;1.15;1.00;;;22.40;99.90;;;;;;5086906;28;20639;-77
2022/10/08 02:35:03;;;;;;;2.30;1.45;;;22.40;99.90;;;;;;5086596;28;20230;-77
2022/10/08 02:37:40;;;;;;;2.60;1.30;;;22.50;99.90;;;;;;5087365;28;20191;-75
2022/10/08 02:40:14;;;;;;;4.20;1.40;;;22.50;99.90;;;;;;5086689;28;20227;-76
2022/10/08 02:42:51;;;;;;;2.00;1.30;;;22.50;99.90;;;;;;5086839;28;20206;-75
2022/10/08 02:45:29;;;;;;;3.47;1.60;;;22.60;99.90;;;;;;5087289;28;20198;-76
2022/10/08 02:48:06;;;;;;;3.15;1.50;;;22.60;99.90;;;;;;5086818;28;20209;-75
2022/10/08 02:50:40;;;;;;;3.75;1.77;;;22.60;99.90;;;;;;5085643;28;20465;-75
2022/10/08 02:53:13;;;;;;;8.15;2.25;;;22.70;99.90;;;;;;5085509;28;20252;-75
2022/10/08 02:55:50;;;;;;;5.93;1.85;;;22.70;99.90;;;;;;5086375;28;20202;-75
2022/10/08 02:58:23;;;;;;;2.80;1.80;;;22.60;99.90;;;;;;5086725;28;20237;-75
2022/10/08 03:01:00;;;;;;;3.35;1.50;;;22.60;99.90;;;;;;5086877;28;20203;-76
2022/10/08 03:03:34;;;;;;;3.53;1.60;;;22.60;99.90;;;;;;5085554;28;20195;-76
2022/10/08 03:06:08;;;;;;;3.55;1.83;;;22.60;99.90;;;;;;5085897;28;20615;-76
2022/10/08 03:08:47;;;;;;;3.22;1.50;;;22.60;99.90;;;;;;5086743;28;20203;-76
2022/10/08 03:11:25;;;;;;;6.22;2.05;;;22.60;99.90;;;;;;5090850;28;20274;-77
2022/10/08 03:14:05;;;;;;;5.80;2.50;;;22.70;99.90;;;;;;5089545;28;20291;-76
2022/10/08 03:16:41;;;;;;;6.68;3.50;;;22.60;99.90;;;;;;5089650;28;20774;-77
2022/10/08 03:19:20;;;;;;;8.60;4.30;;;22.50;99.90;;;;;;5091946;28;20300;-76
2022/10/08 03:21:58;;;;;;;8.27;4.28;;;22.30;99.90;;;;;;5089734;28;20219;-77
2022/10/08 03:24:31;;;;;;;11.18;4.70;;;22.10;99.90;;;;;;5087445;28;20206;-76
2022/10/08 03:27:02;;;;;;;7.97;4.22;;;22.00;99.90;;;;;;5088916;28;20218;-77
2022/10/08 03:29:36;;;;;;;7.10;4.22;;;21.90;99.90;;;;;;5086994;28;20569;-76
2022/10/08 03:32:11;;;;;;;6.00;4.43;;;21.80;99.90;;;;;;5090616;28;20209;-77
2022/10/08 03:34:42;;;;;;;7.15;4.10;;;21.70;99.90;;;;;;5089852;28;20706;-77
2022/10/08 03:37:13;;;;;;;7.57;4.35;;;21.70;99.90;;;;;;5087432;28;20198;-76
2022/10/08 03:39:44;;;;;;;5.20;4.43;;;21.50;99.90;;;;;;5085476;28;20589;-76
2022/10/08 03:42:15;;;;;;;9.00;5.03;;;21.40;99.90;;;;;;5086189;28;20617;-75
2022/10/08 03:44:46;;;;;;;5.15;4.18;;;21.40;99.90;;;;;;5087748;28;20293;-75
2022/10/08 03:47:19;;;;;;;6.10;4.70;;;21.40;99.90;;;;;;5087530;28;20203;-75
2022/10/08 03:49:50;;;;;;;7.88;5.53;;;21.40;99.90;;;;;;5087450;28;20203;-76
2022/10/08 03:52:21;;;;;;;7.32;4.82;;;21.30;99.90;;;;;;5087044;28;20206;-75
2022/10/08 03:54:52;;;;;;;8.85;4.75;;;21.30;99.90;;;;;;5087178;28;20195;-75
2022/10/08 03:57:23;;;;;;;7.38;4.97;;;21.20;99.90;;;;;;5085798;28;20218;-76
2022/10/08 03:59:54;;;;;;;6.07;4.45;;;21.20;99.90;;;;;;5087608;28;20697;-76
2022/10/08 04:02:27;;;;;;;7.80;4.30;;;21.20;99.90;;;;;;5087449;28;20245;-74
2022/10/08 04:04:58;;;;;;;6.80;3.90;;;21.10;99.90;;;;;;5084432;28;20440;-75
2022/10/08 04:07:30;;;;;;;9.95;4.00;;;21.00;99.90;;;;;;5086104;28;20210;-75
2022/10/08 04:10:00;;;;;;;8.32;4.05;;;20.90;99.90;;;;;;5085961;28;20333;-76
2022/10/08 04:12:50;;;;;;;4.70;3.20;;;20.80;99.90;;;;;;5089756;28;20210;-76
2022/10/08 04:15:26;;;;;;;4.93;3.00;;;20.80;99.90;;;;;;5093884;28;20203;-77
2022/10/08 04:18:06;;;;;;;4.78;2.35;;;20.80;99.90;;;;;;5092872;28;20199;-77
2022/10/08 04:20:37;;;;;;;4.88;2.63;;;20.70;99.90;;;;;;5096256;28;20252;-78
2022/10/08 04:23:11;;;;;;;5.43;2.75;;;20.60;99.90;;;;;;5093221;28;20191;-76
2022/10/08 04:25:52;;;;;;;5.07;2.50;;;20.60;99.90;;;;;;5092217;28;20611;-77
2022/10/08 04:28:27;;;;;;;3.03;2.00;;;20.50;99.90;;;;;;5092292;28;20203;-76
2022/10/08 04:31:02;;;;;;;5.45;2.40;;;20.50;99.90;;;;;;5092977;28;20198;-76
2022/10/08 04:33:37;;;;;;;6.63;2.30;;;20.40;99.90;;;;;;5094691;28;20605;-77
2022/10/08 04:36:11;;;;;;;6.43;1.98;;;20.40;99.90;;;;;;5092690;28;20198;-76
2022/10/08 04:38:51;;;;;;;5.15;2.10;;;20.30;99.90;;;;;;5090666;28;20371;-76
2022/10/08 04:41:23;;;;;;;2.10;1.45;;;20.30;99.90;;;;;;5098075;28;20203;-77
2022/10/08 04:44:01;;;;;;;2.92;2.00;;;20.30;99.90;;;;;;5099181;28;20191;-77
2022/10/08 04:46:35;;;;;;;3.42;1.83;;;20.20;99.90;;;;;;5097424;28;20207;-78
2022/10/08 04:49:08;;;;;;;2.38;1.73;;;20.10;99.90;;;;;;5098183;28;20223;-76
2022/10/08 04:51:39;;;;;;;4.28;1.65;;;20.10;99.90;;;;;;5099686;28;20203;-77
2022/10/08 04:54:10;;;;;;;2.88;1.60;;;20.10;99.90;;;;;;5086980;28;20690;-78
2022/10/08 04:56:47;;;;;;;6.13;1.75;;;20.00;99.90;;;;;;5098589;28;20195;-78
2022/10/08 04:59:25;;;;;;;4.93;2.05;;;20.00;99.90;;;;;;5100828;28;20203;-76
2022/10/08 05:01:59;;;;;;;5.78;2.00;;;20.00;99.90;;;;;;5106234;28;20203;-74
2022/10/08 05:04:37;;;;;;;5.90;2.38;;;20.00;99.90;;;;;;5099018;28;20191;-77
2022/10/08 05:07:09;;;;;;;4.78;2.10;;;20.00;99.90;;;;;;5096707;28;20203;-78
2022/10/08 05:09:40;;;;;;;6.80;2.10;;;20.00;99.90;;;;;;5096750;28;20674;-76
2022/10/08 05:12:18;;;;;;;3.47;2.00;;;20.00;99.90;;;;;;5090524;28;20207;-78
2022/10/08 05:14:51;;;;;;;7.22;2.13;;;20.00;99.90;;;;;;5098301;28;20234;-78
2022/10/08 05:17:22;;;;;;;5.68;2.30;;;19.90;99.90;;;;;;5099578;28;20209;-78
2022/10/08 05:20:00;;;;;;;6.25;2.00;;;19.90;99.90;;;;;;5098231;28;20238;-79
2022/10/08 05:22:38;;;;;;;4.65;2.10;;;19.80;99.90;;;;;;5097138;28;20210;-79
2022/10/08 05:25:10;;;;;;;6.00;2.13;;;19.80;99.90;;;;;;5097429;28;20289;-78
2022/10/08 05:27:50;;;;;;;7.07;2.08;;;19.80;99.90;;;;;;5097101;28;20230;-78
2022/10/08 05:30:22;;;;;;;4.90;1.70;;;19.80;99.90;;;;;;5094780;28;20198;-78
2022/10/08 05:33:07;;;;;;;3.50;1.77;;;19.70;99.90;;;;;;5096840;28;20199;-78
2022/10/08 05:35:48;;;;;;;7.68;2.10;;;19.80;99.90;;;;;;5096342;28;20203;-78
2022/10/08 05:38:21;;;;;;;3.33;2.05;;;19.70;99.90;;;;;;5096131;28;20191;-78
2022/10/08 05:40:55;;;;;;;4.97;2.20;;;19.70;99.90;;;;;;5103001;28;20223;-79
2022/10/08 05:43:33;;;;;;;6.15;2.00;;;19.70;99.90;;;;;;5117563;27;20223;-79
2022/10/08 05:46:11;;;;;;;4.45;1.55;;;19.70;99.90;;;;;;5102796;28;20199;-79
2022/10/08 05:48:45;;;;;;;5.13;2.03;;;19.70;99.90;;;;;;5103812;28;20466;-78
2022/10/08 05:51:20;;;;;;;4.95;2.00;;;19.70;99.90;;;;;;5104013;28;20202;-78
2022/10/08 05:53:59;;;;;;;6.80;1.83;;;19.70;99.90;;;;;;5099194;28;20286;-78
2022/10/08 05:56:32;;;;;;;4.47;1.80;;;19.70;99.90;;;;;;5099757;28;20206;-80
2022/10/08 05:59:07;;;;;;;6.38;2.00;;;19.70;99.90;;;;;;5097415;28;20233;-77
2022/10/08 06:01:38;;;;;;;6.05;2.08;;;19.70;99.90;;;;;;5095675;28;20219;-76
2022/10/08 06:04:09;;;;;;;5.55;1.67;;;19.70;99.90;;;;;;5104173;28;20199;-77
2022/10/08 06:06:44;;;;;;;4.15;1.67;;;19.60;99.90;;;;;;5104685;28;20271;-77
2022/10/08 06:09:17;;;;;;;5.10;1.83;;;19.50;99.90;;;;;;5087610;28;20229;-78
2022/10/08 06:11:48;;;;;;;6.35;1.90;;;19.50;99.90;;;;;;5087464;28;20204;-78
2022/10/08 06:14:20;;;;;;;4.93;1.90;;;19.50;99.90;;;;;;5089063;28;20230;-77
2022/10/08 06:16:51;;;;;;;4.72;1.70;;;19.50;99.90;;;;;;5088551;28;20203;-77
2022/10/08 06:19:32;;;;;;;5.47;1.77;;;19.40;99.90;;;;;;5103750;28;20199;-78
2022/10/08 06:22:22;;;;;;;4.05;1.60;;;19.40;99.90;;;;;;5104054;28;20271;-77
2022/10/08 06:25:03;;;;;;;5.15;1.88;;;19.50;99.90;;;;;;5096129;28;20199;-77
2022/10/08 06:27:38;;;;;;;3.83;1.63;;;19.50;99.90;;;;;;5096973;28;20191;-77
2022/10/08 06:30:10;;;;;;;4.40;1.67;;;19.50;99.90;;;;;;5095391;28;20210;-77
2022/10/08 06:32:40;;;;;;;7.22;2.33;;;19.50;99.90;;;;;;5097362;28;20210;-76
2022/10/08 06:35:12;;;;;;;6.82;2.28;;;19.50;99.90;;;;;;5095417;28;20198;-78
2022/10/08 06:38:03;;;;;;;5.93;2.20;;;19.40;99.90;;;;;;5095158;28;20215;-78
2022/10/08 06:40:39;;;;;;;12.02;2.17;;;19.50;99.90;;;;;;5095543;28;20250;-74
2022/10/08 06:43:14;;;;;;;3.65;1.80;;;19.40;99.90;;;;;;5099112;28;20210;-76
2022/10/08 06:45:50;;;;;;;6.30;1.95;;;19.30;99.90;;;;;;5097836;28;20205;-76
2022/10/08 06:48:30;;;;;;;7.25;2.00;;;19.30;99.90;;;;;;5097294;28;20206;-76
2022/10/08 06:51:22;;;;;;;6.05;1.90;;;19.40;99.90;;;;;;5093955;28;20186;-76
2022/10/08 06:53:58;;;;;;;5.32;2.03;;;19.30;99.90;;;;;;5096480;28;20207;-76
2022/10/08 06:56:34;;;;;;;6.95;2.03;;;19.30;99.90;;;;;;5094245;28;20210;-78
2022/10/08 06:59:06;;;;;;;6.05;1.90;;;19.30;99.90;;;;;;5093902;28;20248;-77
2022/10/08 07:01:42;;;;;;;6.60;1.95;;;19.20;99.90;;;;;;5097106;28;20313;-78
2022/10/08 07:04:17;;;;;;;8.70;2.05;;;19.20;99.90;;;;;;5094755;28;20267;-78
2022/10/08 07:06:59;;;;;;;6.90;1.95;;;19.20;99.90;;;;;;5096400;28;21543;-77
2022/10/08 07:09:38;;;;;;;7.55;1.70;;;19.20;99.90;;;;;;5096065;28;20670;-78
2022/10/08 07:12:09;;;;;;;8.75;2.00;;;19.20;99.90;;;;;;5093720;28;20195;-78
2022/10/08 07:14:43;;;;;;;6.88;2.15;;;19.20;99.90;;;;;;5095983;28;20223;-77
2022/10/08 07:17:14;;;;;;;12.27;2.03;;;19.10;99.90;;;;;;5095327;28;20188;-78
2022/10/08 07:19:46;;;;;;;10.98;2.15;;;19.10;99.90;;;;;;5094786;28;20196;-76
2022/10/08 07:22:17;;;;;;;11.40;2.20;;;19.10;99.90;;;;;;5097548;28;20227;-76
2022/10/08 07:24:50;;;;;;;11.18;2.63;;;19.00;99.90;;;;;;5092980;28;20207;-78
2022/10/08 07:27:21;;;;;;;9.13;2.40;;;19.00;99.90;;;;;;5086661;28;20286;-77
2022/10/08 07:29:52;;;;;;;12.13;2.60;;;19.00;99.90;;;;;;5087439;28;20203;-78
2022/10/08 07:32:23;;;;;;;12.02;2.45;;;19.00;99.90;;;;;;5085987;28;20210;-78
2022/10/08 07:34:54;;;;;;;6.55;2.20;;;18.90;99.90;;;;;;5086028;28;20213;-78
2022/10/08 07:37:25;;;;;;;8.85;2.00;;;18.90;99.90;;;;;;5084218;28;20314;-78
2022/10/08 07:40:00;;;;;;;11.15;2.38;;;18.90;99.90;;;;;;5085804;28;20203;-78
2022/10/08 07:42:31;;;;;;;10.88;2.75;;;18.80;99.90;;;;;;5086437;28;20195;-77
2022/10/08 07:45:02;;;;;;;9.38;2.50;;;18.80;99.90;;;;;;5084593;28;20226;-76
2022/10/08 07:47:33;;;;;;;6.55;2.13;;;18.70;99.90;;;;;;5085241;28;20195;-76
2022/10/08 07:50:04;;;;;;;6.93;2.17;;;18.80;99.90;;;;;;5085148;28;20270;-76
2022/10/08 07:52:35;;;;;;;12.82;2.83;;;18.80;99.90;;;;;;5084327;28;20199;-77
2022/10/08 07:55:09;;;;;;;10.45;2.65;;;18.70;99.90;;;;;;5084454;28;20209;-76
2022/10/08 07:57:40;;;;;;;12.85;2.63;;;18.70;99.90;;;;;;5084909;28;20195;-77
2022/10/08 08:00:12;;;;;;;11.40;2.80;;;18.70;99.90;;;;;;5083848;28;20252;-77
2022/10/08 08:02:45;;;;;;;11.25;2.20;;;18.70;99.90;;;;;;5085879;28;20602;-76
2022/10/08 08:05:16;;;;;;;8.00;1.80;;;18.70;99.90;;;;;;5085689;28;20213;-77
2022/10/08 08:07:47;;;;;;;10.77;2.50;;;18.60;99.90;;;;;;5084646;28;20199;-77
2022/10/08 08:10:20;;;;;;;7.68;2.20;;;18.50;99.90;;;;;;5085640;28;20484;-77
2022/10/08 08:12:51;;;;;;;6.45;2.22;;;18.50;99.90;;;;;;5085828;28;20218;-77
2022/10/08 08:15:22;;;;;;;9.55;2.42;;;18.50;99.90;;;;;;5085221;28;20310;-77
2022/10/08 08:17:53;;;;;;;12.65;2.80;;;18.50;99.90;;;;;;5089271;28;20207;-77
2022/10/08 08:20:24;;;;;;;6.63;2.40;;;18.50;99.90;;;;;;5089661;28;20225;-76
2022/10/08 08:22:55;;;;;;;9.10;2.30;;;18.50;99.90;;;;;;5084914;28;20207;-77
2022/10/08 08:25:28;;;;;;;9.60;2.75;;;18.50;99.90;;;;;;5089621;28;20198;-78
2022/10/08 08:27:59;;;;;;;8.13;3.13;;;18.50;99.90;;;;;;5089391;28;20199;-78
2022/10/08 08:30:30;;;;;;;8.77;2.97;;;18.50;99.90;;;;;;5089686;28;20203;-78
2022/10/08 08:33:04;;;;;;;8.13;2.30;;;18.50;99.90;;;;;;5089656;28;20199;-78
2022/10/08 08:35:35;;;;;;;9.65;2.22;;;18.50;99.90;;;;;;5089714;28;20203;-78
2022/10/08 08:38:06;;;;;;;7.65;2.28;;;18.50;99.90;;;;;;5087190;28;20187;-77
2022/10/08 08:40:39;;;;;;;6.30;2.13;;;18.50;99.90;;;;;;5088241;28;20262;-78
2022/10/08 08:43:10;;;;;;;6.30;2.00;;;18.50;99.90;;;;;;5089555;28;20199;-78
2022/10/08 08:45:42;;;;;;;6.22;2.00;;;18.50;99.90;;;;;;5087236;28;20237;-78
2022/10/08 08:48:20;;;;;;;6.90;2.17;;;18.50;99.90;;;;;;5109385;28;20217;-76
2022/10/08 08:50:54;;;;;;;8.63;2.72;;;18.50;99.90;;;;;;5110626;28;20661;-77
2022/10/08 08:53:26;;;;;;;9.23;2.42;;;18.50;99.90;;;;;;5096907;28;20195;-78
2022/10/08 08:56:06;;;;;;;10.48;2.85;;;18.50;99.90;;;;;;5101702;28;20278;-78
2022/10/08 08:58:49;;;;;;;9.75;2.70;;;18.50;99.90;;;;;;5098167;28;20289;-78
2022/10/08 09:01:33;;;;;;;6.28;2.65;;;18.50;99.90;;;;;;5083763;28;20226;-78
2022/10/08 09:04:16;;;;;;;8.25;3.10;;;18.50;99.90;;;;;;5098741;28;20195;-76
2022/10/08 09:06:49;;;;;;;8.70;3.40;;;18.50;99.90;;;;;;5096431;28;20199;-78
2022/10/08 09:10:04;;;;;;;11.55;4.15;;;18.50;99.90;;;;;;5096652;28;20339;-78
2022/10/08 09:15:55;;;;;;;9.38;2.60;;;18.50;99.90;;;;;;5079092;28;20654;-79
2022/10/08 09:18:34;;;;;;;6.90;2.67;;;18.50;99.90;;;;;;5092657;28;20195;-82
2022/10/08 09:21:17;;;;;;;5.35;2.38;;;18.50;99.90;;;;;;5094858;28;20686;-80
2022/10/08 09:24:04;;;;;;;7.78;2.13;;;18.40;99.90;;;;;;5089287;28;20191;-79
2022/10/08 09:26:49;;;;;;;4.88;1.63;;;18.40;99.90;;;;;;5093082;28;20227;-77
2022/10/08 09:29:42;;;;;;;6.78;2.13;;;18.40;99.90;;;;;;5091879;28;20203;-78
2022/10/08 09:32:39;;;;;;;10.55;2.60;;;18.40;99.90;;;;;;5098145;28;20728;-78
2022/10/08 09:35:17;;;;;;;8.27;2.60;;;18.40;99.90;;;;;;5103143;28;20195;-77
2022/10/08 09:38:05;;;;;;;;;;;;;;;;;;;;;
2022/10/08 09:40:38;;;;;;;7.53;2.28;;;18.40;99.90;;;;;;5097259;28;20211;-78
2022/10/08 09:43:20;;;;;;;8.85;2.28;;;18.30;99.90;;;;;;5098142;28;20203;-78
2022/10/08 09:46:03;;;;;;;4.97;1.52;;;18.30;99.90;;;;;;5078162;28;20195;-78
2022/10/08 09:48:44;;;;;;;11.50;2.03;;;18.30;99.90;;;;;;5101082;28;20202;-77
2022/10/08 09:51:18;;;;;;;12.63;3.50;;;18.30;99.90;;;;;;5097429;28;20207;-78
2022/10/08 09:54:00;;;;;;;11.20;3.10;;;18.30;99.90;;;;;;5092896;28;20206;-78
2022/10/08 09:56:32;;;;;;;7.35;2.30;;;18.30;99.90;;;;;;5087638;28;20195;-78
2022/10/08 09:59:32;;;;;;;6.35;2.40;;;18.20;99.90;;;;;;5090784;28;20222;-77
2022/10/08 10:02:23;;;;;;;8.95;2.80;;;18.20;99.90;;;;;;5091726;28;20778;-79
2022/10/08 10:04:59;;;;;;;14.10;8.65;;;18.20;99.90;;;;;;5087876;28;20195;-80
2022/10/08 10:07:45;;;;;;;9.20;3.90;;;18.20;99.90;;;;;;5090254;28;20604;-78
2022/10/08 10:10:34;;;;;;;12.32;3.00;;;18.20;99.90;;;;;;5090195;28;20231;-79
2022/10/08 10:13:14;;;;;;;4.60;1.25;;;18.20;99.90;;;;;;5091172;28;20270;-79
2022/10/08 10:15:52;;;;;;;5.78;1.40;;;17.90;99.90;;;;;;5089996;28;20222;-78
2022/10/08 10:18:35;;;;;;;7.10;1.70;;;17.70;99.90;;;;;;5089313;28;20188;-80
2022/10/08 10:21:15;;;;;;;6.82;1.67;;;17.60;99.90;;;;;;5088063;28;20665;-79
2022/10/08 10:24:09;;;;;;;4.15;1.30;;;17.40;99.90;;;;;;5089308;28;20203;-80
2022/10/08 10:26:48;;;;;;;7.10;2.72;;;17.40;99.90;;;;;;5090679;28;20267;-78
2022/10/08 10:32:17;;;;;;;4.82;1.40;;;17.30;99.90;;;;;;5090694;28;20566;-79
2022/10/08 10:35:32;;;;;;;5.50;1.33;;;17.20;99.90;;;;;;5091000;28;20200;-80
2022/10/08 10:38:23;;;;;;;3.15;1.10;;;17.30;99.90;;;;;;5089039;28;20206;-79
2022/10/08 10:41:14;;;;;;;3.67;1.17;;;17.30;99.90;;;;;;5088726;28;20607;-79
2022/10/08 10:44:02;;;;;;;3.08;1.10;;;17.30;99.90;;;;;;5089229;28;20207;-80
2022/10/08 10:46:40;;;;;;;4.22;1.10;;;17.20;99.90;;;;;;5091600;28;20395;-80
2022/10/08 10:49:31;;;;;;;6.35;1.23;;;17.30;99.90;;;;;;5092411;28;20191;-81
2022/10/08 10:52:30;;;;;;;4.68;1.58;;;17.30;99.90;;;;;;5091345;28;20230;-80
2022/10/08 10:55:26;;;;;;;3.30;1.27;;;17.30;99.90;;;;;;5088251;28;20195;-79
2022/10/08 10:58:20;;;;;;;4.65;1.13;;;17.40;99.90;;;;;;5090987;28;20666;-81
2022/10/08 11:01:02;;;;;;;26.50;18.35;;;17.30;99.90;;;;;;5090957;28;20619;-81
2022/10/08 11:03:47;;;;;;;9.48;4.05;;;17.40;99.90;;;;;;5091148;28;20203;-79
2022/10/08 11:06:50;;;;;;;7.65;2.03;;;17.30;99.90;;;;;;5092275;28;20205;-80
2022/10/08 11:09:36;;;;;;;6.88;1.73;;;17.30;99.90;;;;;;5084819;28;20195;-78
2022/10/08 11:12:21;;;;;;;7.13;1.55;;;17.40;99.90;;;;;;5087039;28;20689;-78
2022/10/08 11:15:03;;;;;;;4.15;1.15;;;17.30;99.90;;;;;;5085834;28;20250;-78
2022/10/08 11:18:02;;;;;;;6.05;1.38;;;17.30;99.90;;;;;;5086165;28;20195;-78
2022/10/08 11:20:54;;;;;;;6.22;1.27;;;17.40;99.90;;;;;;5085569;28;20273;-79
2022/10/08 11:23:41;;;;;;;5.68;1.30;;;17.40;99.90;;;;;;5083714;28;20195;-79
2022/10/08 11:26:24;;;;;;;7.25;1.52;;;17.40;99.90;;;;;;5085137;28;20661;-78
2022/10/08 11:29:08;;;;;;;6.43;1.30;;;17.40;99.90;;;;;;5084963;28;20192;-78
2022/10/08 11:31:44;;;;;;;5.53;1.25;;;17.50;99.90;;;;;;5087535;28;20199;-78
2022/10/08 11:34:29;;;;;;;4.60;1.10;;;17.40;99.90;;;;;;5085301;28;20191;-78
2022/10/08 11:37:16;;;;;;;4.07;1.17;;;17.30;99.90;;;;;;5083501;28;20222;-79
2022/10/08 11:39:55;;;;;;;6.15;1.48;;;17.40;99.90;;;;;;5081265;28;20203;-78
2022/10/08 11:42:36;;;;;;;7.55;1.55;;;17.40;99.90;;;;;;5089309;28;20236;-78
2022/10/08 11:45:30;;;;;;;7.82;1.67;;;17.40;99.90;;;;;;5085243;28;20198;-79
2022/10/08 11:48:03;;;;;;;6.45;1.55;;;17.20;99.90;;;;;;5087046;28;20222;-79
2022/10/08 11:50:35;;;;;;;3.92;1.27;;;17.20;99.90;;;;;;5085532;28;20202;-77
2022/10/08 11:53:21;;;;;;;5.75;1.45;;;17.30;99.90;;;;;;5084942;28;20230;-77
2022/10/08 11:55:57;;;;;;;4.38;1.60;;;17.30;99.90;;;;;;5084632;28;20199;-78
2022/10/08 11:58:31;;;;;;;4.50;1.50;;;17.40;99.90;;;;;;5084747;28;20198;-78
2022/10/08 12:01:07;;;;;;;5.90;1.73;;;17.40;99.90;;;;;;5083722;28;20676;-77
2022/10/08 12:03:40;;;;;;;4.38;1.30;;;17.40;99.90;;;;;;5085808;28;20228;-78
2022/10/08 12:06:19;;;;;;;7.88;1.45;;;17.40;99.90;;;;;;5086007;28;20231;-78
2022/10/08 12:08:58;;;;;;;5.45;1.48;;;17.40;99.90;;;;;;5084400;28;20199;-78
2022/10/08 12:11:55;;;;;;;5.28;1.60;;;17.40;99.90;;;;;;5086081;28;20196;-78
2022/10/08 12:14:49;;;;;;;6.28;1.60;;;17.40;99.90;;;;;;5085405;28;20566;-78
2022/10/08 12:17:20;;;;;;;7.13;1.88;;;17.40;99.90;;;;;;5074807;28;20654;-78
2022/10/08 12:20:21;;;;;;;6.13;1.63;;;17.40;99.90;;;;;;5087977;28;20210;-80
2022/10/08 12:23:10;;;;;;;7.45;1.73;;;17.40;99.90;;;;;;5088124;28;20225;-79
2022/10/08 12:25:43;;;;;;;5.30;1.75;;;17.40;99.90;;;;;;5091391;28;20207;-78
2022/10/08 12:28:54;;;;;;;9.80;1.65;;;17.40;99.90;;;;;;5086069;28;20226;-79
2022/10/08 12:31:40;;;;;;;5.75;1.50;;;17.50;99.90;;;;;;5067693;28;20198;-79
2022/10/08 12:34:21;;;;;;;5.13;1.67;;;17.50;99.90;;;;;;5085292;28;20203;-79
2022/10/08 12:37:04;;;;;;;4.70;1.30;;;17.50;99.90;;;;;;5086453;28;20199;-79
2022/10/08 12:39:43;;;;;;;5.32;1.40;;;17.40;99.90;;;;;;5085570;28;20191;-77
2022/10/08 12:42:21;;;;;;;8.40;1.60;;;17.30;99.90;;;;;;5087660;28;20242;-82
2022/10/08 12:45:08;;;;;;;9.18;1.60;;;17.30;99.90;;;;;;5085285;28;20213;-80
2022/10/08 12:47:50;;;;;;;4.15;1.20;;;17.30;99.90;;;;;;5084845;28;20195;-81
2022/10/08 12:50:49;;;;;;;6.40;1.40;;;17.30;99.90;;;;;;5087991;28;20240;-81
2022/10/08 12:53:20;;;;;;;6.75;1.08;;;17.20;99.90;;;;;;5084228;28;20202;-81
2022/10/08 12:55:53;;;;;;;4.88;1.10;;;17.20;99.90;;;;;;5086954;28;20282;-81
2022/10/08 12:58:27;;;;;;;5.28;1.15;;;17.10;99.90;;;;;;5087250;28;20540;-81
2022/10/08 13:01:00;;;;;;;1.92;0.57;;;17.10;99.90;;;;;;5087717;28;20195;-80
2022/10/08 13:03:33;;;;;;;3.20;0.75;;;17.00;99.90;;;;;;5088971;28;20705;-80
2022/10/08 13:06:18;;;;;;;2.10;0.73;;;16.90;99.90;;;;;;5087699;28;20199;-79
2022/10/08 13:08:52;;;;;;;2.25;0.60;;;17.00;99.90;;;;;;5090664;28;20196;-79
2022/10/08 13:11:23;;;;;;;1.05;0.40;;;16.90;99.90;;;;;;5092610;28;20288;-80
2022/10/08 13:13:54;;;;;;;1.13;0.60;;;16.80;99.90;;;;;;5089607;28;20569;-80
2022/10/08 13:16:29;;;;;;;0.80;0.40;;;16.80;99.90;;;;;;5087414;28;20194;-79
2022/10/08 13:19:02;;;;;;;0.93;0.50;;;16.80;99.90;;;;;;5089581;28;20273;-79
2022/10/08 13:21:40;;;;;;;1.70;0.25;;;16.70;99.90;;;;;;5089484;28;20219;-80
2022/10/08 13:24:38;;;;;;;2.10;0.50;;;16.70;99.90;;;;;;5085807;28;20240;-79
2022/10/08 13:27:23;;;;;;;1.15;0.43;;;16.70;99.90;;;;;;5089123;28;20674;-80
2022/10/08 13:29:54;;;;;;;1.80;0.47;;;16.70;99.90;;;;;;5090201;28;20674;-80
2022/10/08 13:32:28;;;;;;;2.35;0.57;;;16.60;99.90;;;;;;5089325;28;20571;-80
2022/10/08 13:35:02;;;;;;;1.00;0.30;;;16.70;99.90;;;;;;5087787;28;20203;-80
2022/10/08 13:37:51;;;;;;;1.25;0.30;;;16.70;99.90;;;;;;5090000;28;20203;-80
2022/10/08 13:40:25;;;;;;;1.05;0.40;;;16.60;99.90;;;;;;5088475;28;20207;-80
2022/10/08 13:42:58;;;;;;;1.92;0.50;;;16.50;99.90;;;;;;5087535;28;20231;-79
2022/10/08 13:45:31;;;;;;;0.98;0.30;;;16.40;99.90;;;;;;5088374;28;20207;-80
2022/10/08 13:48:03;;;;;;;1.27;0.45;;;16.40;99.90;;;;;;5090002;28;20199;-79
2022/10/08 13:50:36;;;;;;;0.60;0.40;;;16.20;99.90;;;;;;5090411;28;20286;-80